map of YCB home
YCB - Airport
Location
City:  Cambridge Bay, Kitikmeot, Nunavut, Canada
Near (Alt.):Iqaluktuuttiaq
Name:Cambridge Bay Airport
ICAO:CYCB
IATA:YCB

Details
Type:Airport (Airfield)
Use:Public/Civil
Latitude:6906'29"N (69.108056)
Longitude:10508'14"W (-105.137221)
Elevation:102 ft (31 m)
Variation:7.45E (WMM2015v2 magnetic declination)
-0.01 annual change
Runways:1
Longest:5076 ft (1547 m)

Time
Time Zone:UTC-7 (DST-6)
Local Time:

Weather
METAR:CYCB 041400Z 27007KT 15SM SKC M35/M39 A3045 RMK SLP318
TAF:CYCB 041238Z 0413/0501 30008KT P6SM SKC
RMK NXT FCST BY 041900Z

Related Locations
Nearby:
Farthest:YWKS: 11477 mi / 18471 km
Wilkins Runway (Casey), Upper Peterson Glacier, AQ

Find:

   beyond  
but within

Other Information
Maps:
NOTAMs:
Links:
Sources:

  
  • flag of Canada
  • flag of Nunavut
  

Airport Diagram

Airport diagram for YCB

Airport diagram PDF

Sectional Chart

Flight Planning
at skyvector.com

Satellite Image

Google Maps Satellite view

 

Copyright © 2004-2019 Karl L. Swartz. All rights reserved.
The Great Circle Mapper name and logo are trademarks of the Great Circle Mapper.
All other trademarks mentioned herein belong to their respective owners.
Please see credits for attibutions and further copyright information.

  Follow gcmap on Facebook Follow gcmap on Twitter GCmap on LinkedIn

hCard Microformat

Geo Microformat